Time;durP1;ratioP1;P1;durP2;ratioP2;P2;SDS_P1;SDS_P2;PMS_P1;PMS_P2;Temp;Humidity;BMP_temperature;BMP_pressure;BME280_temperature;BME280_humidity;BME280_pressure;Samples;Min_cycle;Max_cycle;Signal;HPM_P1;HPM_P2
2023/01/14 00:01:52;;;;;;;39.83;3.63;;;;;;;7.37;100.00;101315.75;5039788;28;20121;-41
2023/01/14 00:04:17;;;;;;;22.20;3.75;;;;;;;7.36;100.00;101308.72;5033835;28;20021;-41
2023/01/14 00:06:43;;;;;;;33.75;3.92;;;;;;;7.35;100.00;101309.72;5043043;28;20044;-41
2023/01/14 00:09:12;;;;;;;39.55;4.03;;;;;;;7.32;100.00;101304.63;5038642;28;20087;-41
2023/01/14 00:11:47;;;;;;;42.67;3.90;;;;;;;7.31;100.00;101309.16;5038671;28;20036;-41
2023/01/14 00:14:23;;;;;;;32.97;6.05;;;;;;;7.28;100.00;101304.09;5041913;28;20029;-41
2023/01/14 00:16:50;;;;;;;27.90;3.30;;;;;;;7.26;100.00;101304.22;5045540;28;20345;-40
2023/01/14 00:19:15;;;;;;;27.27;3.25;;;;;;;7.25;100.00;101315.94;5048695;28;20044;-41
2023/01/14 00:21:43;;;;;;;34.75;3.88;;;;;;;7.21;100.00;101311.91;5038145;28;20033;-41
2023/01/14 00:24:10;;;;;;;41.35;3.83;;;;;;;7.20;100.00;101317.38;5036597;28;20035;-41
2023/01/14 00:26:35;;;;;;;24.33;3.15;;;;;;;7.21;100.00;101298.50;5040707;28;20113;-41
2023/01/14 00:29:01;;;;;;;42.80;4.00;;;;;;;7.20;100.00;101306.69;5045811;28;20115;-41
2023/01/14 00:31:27;;;;;;;46.78;4.85;;;;;;;7.18;100.00;101320.19;5035204;28;20025;-41
2023/01/14 00:33:54;;;;;;;44.88;3.83;;;;;;;7.15;100.00;101328.53;5032060;28;20366;-41
2023/01/14 00:36:22;;;;;;;37.63;3.72;;;;;;;7.14;100.00;101329.53;5032342;28;20026;-41
2023/01/14 00:38:47;;;;;;;45.03;4.50;;;;;;;7.16;100.00;101334.72;5038429;28;20029;-40
2023/01/14 00:41:22;;;;;;;30.50;4.43;;;;;;;7.14;100.00;101334.06;5048053;28;20471;-41
2023/01/14 00:43:49;;;;;;;34.33;4.45;;;;;;;7.10;100.00;101338.84;5047943;28;20607;-41
2023/01/14 00:46:17;;;;;;;47.08;4.20;;;;;;;7.12;100.00;101342.22;5040452;28;20033;-40
2023/01/14 00:48:43;;;;;;;;;;;;;;;7.11;100.00;101334.31;5036115;28;20034;-41
2023/01/14 00:51:08;;;;;;;45.08;4.70;;;;;;;7.10;100.00;101333.47;5044395;28;19916;-41
2023/01/14 00:53:34;;;;;;;47.28;5.32;;;;;;;7.09;100.00;101329.13;5045674;28;20200;-41
2023/01/14 00:56:00;;;;;;;31.85;4.00;;;;;;;7.07;100.00;101323.06;5038527;28;20036;-40
2023/01/14 00:58:25;;;;;;;44.13;3.97;;;;;;;7.07;100.00;101316.88;5049639;28;20032;-41
2023/01/14 01:00:52;;;;;;;37.42;4.20;;;;;;;7.07;100.00;101314.22;5032049;28;20044;-39
2023/01/14 01:03:18;;;;;;;49.63;5.35;;;;;;;7.04;100.00;101307.31;5043674;28;20036;-39
2023/01/14 01:05:43;;;;;;;50.28;4.78;;;;;;;7.02;100.00;101311.97;5039796;28;20037;-40
2023/01/14 01:08:12;;;;;;;29.15;3.60;;;;;;;6.98;100.00;101308.75;5045792;28;20021;-40
2023/01/14 01:10:38;;;;;;;31.15;3.92;;;;;;;6.96;100.00;101315.25;5046451;28;20055;-39
2023/01/14 01:13:04;;;;;;;40.40;3.75;;;;;;;6.93;100.00;101310.19;5042348;28;20033;-40
2023/01/14 01:15:33;;;;;;;33.88;3.83;;;;;;;6.89;100.00;101308.78;5048052;28;20017;-40
2023/01/14 01:17:59;;;;;;;36.85;3.95;;;;;;;6.88;100.00;101301.75;5051363;28;20025;-40
2023/01/14 01:20:24;;;;;;;32.47;3.30;;;;;;;6.86;100.00;101309.91;5043827;28;20025;-40
2023/01/14 01:22:50;;;;;;;46.22;4.22;;;;;;;6.84;100.00;101305.69;5051209;28;20033;-39
2023/01/14 01:25:15;;;;;;;35.17;4.63;;;;;;;6.82;100.00;101298.66;5043390;28;20037;-40
2023/01/14 01:27:41;;;;;;;50.47;4.47;;;;;;;6.80;100.00;101300.66;5043704;28;20033;-39
2023/01/14 01:30:07;;;;;;;47.08;3.83;;;;;;;6.78;100.00;101289.25;5045010;28;20025;-40
2023/01/14 01:32:33;;;;;;;45.50;4.05;;;;;;;6.77;100.00;101292.91;5031340;28;20029;-40
2023/01/14 01:34:58;;;;;;;66.40;5.78;;;;;;;6.74;100.00;101303.91;5036393;28;20044;-39
2023/01/14 01:37:24;;;;;;;37.55;4.28;;;;;;;6.72;100.00;101297.84;5051165;28;20052;-40
2023/01/14 01:39:49;;;;;;;35.05;3.78;;;;;;;6.68;100.00;101296.44;5044908;28;20029;-40
2023/01/14 01:42:15;;;;;;;34.17;3.63;;;;;;;6.66;100.00;101295.78;5037923;28;20388;-40
2023/01/14 01:44:40;;;;;;;44.42;4.68;;;;;;;6.65;100.00;101286.03;5048449;28;20029;-38
2023/01/14 01:47:07;;;;;;;26.65;4.03;;;;;;;6.63;100.00;101276.47;5039621;28;20036;-39
2023/01/14 01:49:34;;;;;;;46.83;5.15;;;;;;;6.60;100.00;101280.28;5033239;28;20098;-40
2023/01/14 01:52:19;;;;;;;28.48;3.35;;;;;;;6.58;100.00;101279.59;5041390;28;20043;-40
2023/01/14 01:55:06;;;;;;;48.03;4.68;;;;;;;6.58;100.00;101268.88;5046720;28;20057;-40
2023/01/14 01:57:31;;;;;;;43.58;4.00;;;;;;;6.56;100.00;101269.06;5032246;28;20026;-40
2023/01/14 02:00:00;;;;;;;52.83;4.30;;;;;;;6.57;100.00;101269.88;5030507;28;20040;-40
2023/01/14 02:02:26;;;;;;;34.70;3.90;;;;;;;6.56;100.00;101260.19;5028437;28;20037;-40
2023/01/14 02:04:51;;;;;;;46.35;3.90;;;;;;;6.52;100.00;101248.94;5034622;28;20067;-40
2023/01/14 02:07:22;;;;;;;48.15;3.88;;;;;;;6.51;100.00;101257.09;5039700;28;20040;-39
2023/01/14 02:09:51;;;;;;;47.58;5.30;;;;;;;6.54;100.00;101251.47;5040327;28;20068;-40
2023/01/14 02:12:32;;;;;;;41.33;3.92;;;;;;;6.49;100.00;101253.72;5032499;28;20052;-40
2023/01/14 02:15:28;;;;;;;32.65;3.65;;;;;;;6.43;100.00;101240.94;5041344;28;20067;-40
2023/01/14 02:18:02;;;;;;;28.92;4.50;;;;;;;6.36;100.00;101243.34;5032154;28;20049;-40
2023/01/14 02:20:40;;;;;;;33.78;4.53;;;;;;;6.32;100.00;101244.66;5041354;28;20087;-40
2023/01/14 02:23:18;;;;;;;38.72;4.25;;;;;;;6.29;100.00;101236.88;5031300;28;20037;-40
2023/01/14 02:26:04;;;;;;;40.70;3.50;;;;;;;6.25;100.00;101236.34;5035414;28;20029;-40
2023/01/14 02:28:51;;;;;;;42.90;3.97;;;;;;;6.19;100.00;101234.25;5032191;28;20190;-40
2023/01/14 02:31:21;;;;;;;36.88;3.33;;;;;;;6.15;100.00;101233.69;5040278;28;20033;-41
2023/01/14 02:33:52;;;;;;;38.70;4.53;;;;;;;6.13;100.00;101227.66;5040648;28;20029;-41
2023/01/14 02:37:02;;;;;;;37.83;3.78;;;;;;;6.11;100.00;101226.13;5034513;28;20040;-40
2023/01/14 02:39:33;;;;;;;36.55;3.50;;;;;;;6.09;100.00;101222.72;5005784;28;20042;-40
2023/01/14 02:45:01;;;;;;;41.38;4.43;;;;;;;6.05;100.00;101224.00;5025678;28;20048;-40
2023/01/14 02:47:27;;;;;;;47.72;4.70;;;;;;;6.00;100.00;101212.88;5025002;28;20100;-40
2023/01/14 02:49:55;;;;;;;38.03;3.72;;;;;;;5.98;100.00;101209.50;5031405;28;20556;-41
2023/01/14 02:52:20;;;;;;;39.40;4.38;;;;;;;5.91;100.00;101212.72;5037899;28;20535;-40
2023/01/14 02:54:52;;;;;;;42.10;4.75;;;;;;;5.86;100.00;101212.31;5044341;28;20055;-40
2023/01/14 02:57:49;;;;;;;33.90;4.57;;;;;;;5.76;100.00;101207.97;5035870;28;20033;-41
2023/01/14 03:00:26;;;;;;;43.72;4.60;;;;;;;5.72;100.00;101202.06;5045153;28;20037;-41
2023/01/14 03:03:17;;;;;;;38.13;4.50;;;;;;;5.68;100.00;101200.66;5036056;28;20032;-40
2023/01/14 03:05:42;;;;;;;41.97;4.35;;;;;;;5.67;100.00;101205.16;5038149;28;20046;-41
2023/01/14 03:08:14;;;;;;;40.60;3.78;;;;;;;5.65;100.00;101206.28;5041159;28;20488;-40
2023/01/14 03:10:52;;;;;;;44.83;3.95;;;;;;;5.65;100.00;101211.63;5046193;28;20417;-40
2023/01/14 03:13:32;;;;;;;57.20;5.78;;;;;;;5.64;100.00;101196.59;5047101;28;20052;-40
2023/01/14 03:16:05;;;;;;;37.67;4.20;;;;;;;5.64;100.00;101188.59;5052823;28;20044;-39
2023/01/14 03:18:41;;;;;;;40.67;4.55;;;;;;;5.63;100.00;101169.03;5054373;28;20016;-40
2023/01/14 03:21:23;;;;;;;34.80;4.35;;;;;;;5.62;100.00;101171.88;5035159;28;20026;-41
2023/01/14 03:24:11;;;;;;;46.88;5.22;;;;;;;5.67;100.00;101188.31;5053335;28;20041;-41
2023/01/14 03:26:38;;;;;;;40.38;4.85;;;;;;;5.63;100.00;101170.88;5036004;28;20103;-40
2023/01/14 03:29:09;;;;;;;33.77;4.30;;;;;;;5.61;100.00;101159.47;5036088;28;20430;-40
2023/01/14 03:31:37;;;;;;;45.65;5.35;;;;;;;5.63;100.00;101152.19;5035229;28;20668;-40
2023/01/14 03:34:09;;;;;;;41.63;4.90;;;;;;;5.64;100.00;101154.72;5047742;28;20025;-39
2023/01/14 03:36:36;;;;;;;39.05;5.75;;;;;;;5.66;100.00;101141.22;5036282;28;20035;-41
2023/01/14 03:39:04;;;;;;;44.22;5.18;;;;;;;5.68;100.00;101137.41;5035738;28;20037;-40
2023/01/14 03:44:24;;;;;;;44.92;5.07;;;;;;;5.70;100.00;101121.25;5041796;28;20044;-40
2023/01/14 03:46:49;;;;;;;59.40;6.80;;;;;;;5.70;100.00;101115.91;5050059;28;20032;-40
2023/01/14 03:49:14;;;;;;;53.10;5.82;;;;;;;5.70;100.00;101110.56;5037878;28;20025;-41
2023/01/14 03:52:16;;;;;;;50.30;5.97;;;;;;;5.73;100.00;101103.09;5034676;28;20263;-40
2023/01/14 03:54:50;;;;;;;52.67;5.25;;;;;;;5.75;100.00;101094.13;5042916;28;20405;-40
2023/01/14 03:57:19;;;;;;;53.13;5.50;;;;;;;5.77;100.00;101085.00;5048186;28;20457;-40
2023/01/14 03:59:57;;;;;;;61.97;7.07;;;;;;;5.79;100.00;101074.13;5043747;28;20029;-39
2023/01/14 04:02:22;;;;;;;44.35;5.45;;;;;;;5.79;100.00;101080.31;5032992;28;20029;-39
2023/01/14 04:04:49;;;;;;;50.13;5.00;;;;;;;5.80;100.00;101071.34;5032233;28;20118;-40
2023/01/14 04:07:14;;;;;;;42.67;4.85;;;;;;;5.81;100.00;101070.34;5049803;28;20032;-40
2023/01/14 04:09:40;;;;;;;57.13;5.63;;;;;;;5.83;100.00;101057.69;5032917;28;20485;-41
2023/01/14 04:12:05;;;;;;;42.85;4.75;;;;;;;5.84;100.00;101054.00;5032178;28;20033;-40
2023/01/14 04:17:15;;;;;;;63.92;5.28;;;;;;;5.91;100.00;101067.66;5033965;28;20087;-40
2023/01/14 04:19:40;;;;;;;54.35;6.22;;;;;;;5.93;100.00;101047.84;5034320;28;20417;-41
2023/01/14 04:22:05;;;;;;;67.30;5.78;;;;;;;5.97;100.00;101051.06;5041895;28;20521;-41
2023/01/14 04:24:30;;;;;;;59.03;6.35;;;;;;;6.01;100.00;101035.59;5041304;28;20435;-40
2023/01/14 04:26:57;;;;;;;53.00;5.20;;;;;;;6.03;100.00;101034.44;5046734;28;20091;-40
2023/01/14 04:29:22;;;;;;;49.42;4.35;;;;;;;6.04;100.00;101021.94;5035645;28;20029;-40
2023/01/14 04:31:47;;;;;;;49.85;5.00;;;;;;;6.10;100.00;101024.00;5034132;28;20060;-40
2023/01/14 04:34:13;;;;;;;62.08;5.78;;;;;;;6.12;100.00;101019.34;5041727;28;20042;-39
2023/01/14 04:36:38;;;;;;;40.33;5.30;;;;;;;6.18;100.00;101015.25;5039563;28;20021;-37
2023/01/14 04:39:04;;;;;;;64.95;5.65;;;;;;;6.14;100.00;101004.84;5050097;28;20502;-40
2023/01/14 04:44:13;;;;;;;40.13;5.80;;;;;;;6.15;100.00;101001.19;5040961;28;20614;-39
2023/01/14 04:46:38;;;;;;;56.58;6.35;;;;;;;6.17;100.00;100990.34;5046811;28;20116;-39
2023/01/14 04:49:04;;;;;;;44.10;5.97;;;;;;;6.22;100.00;100988.06;5049780;28;20084;-40
2023/01/14 04:51:29;;;;;;;45.30;5.35;;;;;;;6.19;100.00;101007.09;5034901;28;20070;-40
2023/01/14 04:53:54;;;;;;;56.22;5.10;;;;;;;6.23;100.00;100995.09;5031925;28;20065;-38
2023/01/14 04:56:20;;;;;;;51.83;5.32;;;;;;;6.24;100.00;100999.47;5045394;28;20506;-40
2023/01/14 04:58:45;;;;;;;53.05;5.72;;;;;;;6.27;100.00;100992.97;5030850;28;20060;-39
2023/01/14 05:01:11;;;;;;;42.92;5.57;;;;;;;6.27;100.00;100974.28;5030237;28;20029;-40
2023/01/14 05:03:37;;;;;;;46.65;5.20;;;;;;;6.22;100.00;100968.53;5032497;28;20021;-40
2023/01/14 05:06:03;;;;;;;39.03;5.40;;;;;;;6.23;100.00;100963.03;5046616;28;20029;-40
2023/01/14 05:08:28;;;;;;;36.00;5.43;;;;;;;6.22;100.00;100964.03;5045512;28;20041;-40
2023/01/14 05:10:54;;;;;;;47.45;5.25;;;;;;;6.21;100.00;100961.50;5030884;28;20111;-41
2023/01/14 05:13:19;;;;;;;45.35;4.55;;;;;;;6.23;100.00;100949.66;5038144;28;20056;-39
2023/01/14 05:15:45;;;;;;;40.78;5.07;;;;;;;6.27;100.00;100935.00;5048072;28;20530;-39
2023/01/14 05:18:13;;;;;;;36.22;5.43;;;;;;;6.26;100.00;100927.97;5050599;28;20033;-40
2023/01/14 05:20:39;;;;;;;46.15;4.40;;;;;;;6.28;100.00;100928.66;5051067;28;20025;-39
2023/01/14 05:23:15;;;;;;;50.22;5.63;;;;;;;6.24;100.00;100913.94;5046219;28;20492;-40
2023/01/14 05:25:41;;;;;;;52.88;6.07;;;;;;;6.28;100.00;100919.81;5032943;28;20025;-40
2023/01/14 05:28:10;;;;;;;38.72;4.43;;;;;;;6.28;100.00;100911.78;5031702;28;20029;-37
2023/01/14 05:30:35;;;;;;;50.90;6.15;;;;;;;6.25;100.00;100904.91;5032722;28;20554;-41
2023/01/14 05:33:01;;;;;;;50.10;4.63;;;;;;;6.18;100.00;100916.38;5043168;28;20112;-41
2023/01/14 05:35:26;;;;;;;44.55;5.28;;;;;;;6.12;100.00;100915.97;5029264;28;20045;-41
2023/01/14 05:37:52;;;;;;;42.35;4.35;;;;;;;6.12;100.00;100909.78;5030767;28;20457;-39
2023/01/14 05:40:17;;;;;;;38.58;5.82;;;;;;;6.12;100.00;100901.78;5030642;28;20090;-39
2023/01/14 05:45:41;;;;;;;43.70;4.88;;;;;;;6.04;100.00;100888.34;5050432;28;20044;-36
2023/01/14 05:48:10;;;;;;;39.20;4.20;;;;;;;6.02;100.00;100876.97;5040435;28;20028;-39
2023/01/14 05:50:37;;;;;;;47.72;4.85;;;;;;;6.02;100.00;100872.44;5036481;28;20812;-36
2023/01/14 05:53:03;;;;;;;39.67;4.97;;;;;;;6.02;100.00;100864.44;5030875;28;20026;-39
2023/01/14 05:55:28;;;;;;;41.00;4.38;;;;;;;6.02;100.00;100855.59;5042482;28;20074;-39
2023/01/14 05:57:56;;;;;;;38.90;5.10;;;;;;;6.02;100.00;100853.75;5033342;28;20029;-36
2023/01/14 06:08:41;;;;;;;38.10;4.65;;;;;;;6.04;100.00;100814.38;5030784;28;20068;-39
2023/01/14 06:11:08;;;;;;;54.42;4.80;;;;;;;6.00;100.00;100793.44;5038551;28;20056;-37
2023/01/14 06:13:34;;;;;;;26.67;5.32;;;;;;;5.99;100.00;100802.47;5045754;28;20388;-39
2023/01/14 06:16:02;;;;;;;33.20;3.10;;;;;;;5.97;100.00;100788.41;5036385;28;20417;-39
2023/01/14 06:18:36;;;;;;;;;;;;;;;5.99;100.00;100787.28;5039314;28;20029;-39
2023/01/14 06:21:02;;;;;;;34.70;3.92;;;;;;;5.96;100.00;100776.91;5044417;28;20312;-37
2023/01/14 06:23:27;;;;;;;32.40;3.92;;;;;;;5.97;100.00;100767.03;5042328;28;20025;-36
2023/01/14 06:25:53;;;;;;;38.35;3.78;;;;;;;6.00;100.00;100772.06;5037529;28;20553;-39
2023/01/14 06:28:18;;;;;;;39.72;4.60;;;;;;;5.96;100.00;100752.03;5047970;28;20463;-39
2023/01/14 06:30:44;;;;;;;34.10;3.80;;;;;;;5.91;100.00;100741.75;5046832;28;20079;-38
2023/01/14 06:33:09;;;;;;;47.78;4.13;;;;;;;5.85;100.00;100737.88;5032084;28;20292;-38
2023/01/14 06:35:40;;;;;;;48.67;5.10;;;;;;;5.84;100.00;100736.19;5033279;28;20048;-39
2023/01/14 06:38:05;;;;;;;24.50;3.50;;;;;;;5.86;100.00;100726.19;5035161;28;20037;-36
2023/01/14 06:40:31;;;;;;;42.45;4.60;;;;;;;5.84;100.00;100725.50;5047314;28;20116;-39
2023/01/14 06:42:56;;;;;;;33.78;3.40;;;;;;;5.80;100.00;100705.44;5034699;28;20033;-39
2023/01/14 06:45:22;;;;;;;29.55;3.72;;;;;;;5.75;100.00;100726.44;5048175;28;20112;-39
2023/01/14 06:47:48;;;;;;;29.77;3.83;;;;;;;5.73;100.00;100701.72;5043304;28;20033;-40
2023/01/14 06:50:14;;;;;;;48.60;4.85;;;;;;;5.72;100.00;100705.38;5046311;28;20487;-41
2023/01/14 06:52:39;;;;;;;40.42;3.90;;;;;;;5.72;100.00;100708.06;5029424;28;20045;-43
2023/01/14 06:55:05;;;;;;;25.73;4.00;;;;;;;5.71;100.00;100687.66;5030070;28;20024;-43
2023/01/14 06:57:30;;;;;;;35.38;4.03;;;;;;;5.74;100.00;100687.38;5029791;28;20067;-43
2023/01/14 06:59:56;;;;;;;40.45;4.75;;;;;;;5.73;100.00;100683.00;5021211;28;20681;-43
2023/01/14 07:02:21;;;;;;;37.72;3.88;;;;;;;5.75;100.00;100675.69;5027284;28;20451;-43
2023/01/14 07:04:46;;;;;;;32.33;3.83;;;;;;;5.76;100.00;100681.88;5031898;28;20455;-43
2023/01/14 07:07:12;;;;;;;37.13;4.82;;;;;;;5.74;100.00;100666.03;5049495;28;20037;-43
2023/01/14 07:09:37;;;;;;;32.80;4.80;;;;;;;5.74;100.00;100663.34;5034277;28;20094;-43
2023/01/14 07:12:03;;;;;;;27.92;4.25;;;;;;;5.82;100.00;100647.38;5030078;28;20029;-43
2023/01/14 07:14:28;;;;;;;29.27;5.05;;;;;;;5.84;100.00;100639.19;5031903;28;20555;-44
2023/01/14 07:16:54;;;;;;;30.65;5.57;;;;;;;5.83;100.00;100627.69;5032835;28;20039;-44
2023/01/14 07:19:19;;;;;;;32.03;4.60;;;;;;;5.85;100.00;100608.84;5030157;28;20397;-44
2023/01/14 07:21:44;;;;;;;28.55;5.55;;;;;;;5.88;100.00;100609.34;5029103;28;20087;-45
2023/01/14 07:24:10;;;;;;;31.92;5.47;;;;;;;5.87;100.00;100602.34;5029891;28;20052;-44
2023/01/14 07:26:36;;;;;;;37.78;4.68;;;;;;;5.87;100.00;100588.13;5036302;28;20144;-45
2023/01/14 07:29:01;;;;;;;22.73;3.63;;;;;;;5.95;100.00;100590.91;5047221;28;20063;-44
2023/01/14 07:31:26;;;;;;;20.63;4.22;;;;;;;5.89;100.00;100576.31;5032344;28;20204;-44
2023/01/14 07:33:52;;;;;;;18.45;3.85;;;;;;;5.93;100.00;100566.16;5028881;28;20029;-44
2023/01/14 07:36:17;;;;;;;24.60;4.90;;;;;;;5.94;100.00;100560.66;5028566;28;20339;-44
2023/01/14 07:38:42;;;;;;;28.55;5.22;;;;;;;5.93;100.00;100540.31;5031153;28;20124;-44
2023/01/14 07:41:09;;;;;;;21.15;4.82;;;;;;;5.97;100.00;100539.97;5050755;28;20072;-44
2023/01/14 07:43:35;;;;;;;19.75;4.70;;;;;;;6.01;100.00;100538.69;5052805;28;20025;-43
2023/01/14 07:46:00;;;;;;;14.68;4.57;;;;;;;6.03;100.00;100531.31;5052902;28;20052;-44
2023/01/14 07:48:26;;;;;;;22.38;4.53;;;;;;;6.03;100.00;100534.00;5051867;28;20025;-44
2023/01/14 07:50:51;;;;;;;14.77;4.30;;;;;;;6.05;100.00;100519.47;5052818;28;20033;-44
2023/01/14 07:53:17;;;;;;;15.00;4.65;;;;;;;6.08;100.00;100508.50;5051316;28;20032;-44
2023/01/14 07:55:42;;;;;;;16.65;4.07;;;;;;;6.10;100.00;100500.31;5032926;28;20029;-44
2023/01/14 07:58:09;;;;;;;11.57;4.25;;;;;;;6.12;100.00;100499.16;5032690;28;20358;-44
2023/01/14 08:00:35;;;;;;;12.57;4.30;;;;;;;6.15;100.00;100488.13;5050534;28;20033;-44
2023/01/14 08:03:00;;;;;;;14.18;5.15;;;;;;;6.21;100.00;100477.78;5052485;28;20369;-44
2023/01/14 08:05:25;;;;;;;11.40;4.88;;;;;;;6.22;100.00;100480.31;5052459;28;20404;-44
2023/01/14 08:07:51;;;;;;;9.73;4.45;;;;;;;6.27;100.00;100487.84;5052172;28;20360;-44
2023/01/14 08:10:16;;;;;;;19.20;5.30;;;;;;;6.27;100.00;100459.28;5052458;28;20036;-44
2023/01/14 08:12:41;;;;;;;17.52;5.90;;;;;;;6.31;100.00;100441.06;5052319;28;20111;-44
2023/01/14 08:15:11;;;;;;;13.68;5.47;;;;;;;6.35;100.00;100445.09;5034611;28;20032;-44
2023/01/14 08:17:36;;;;;;;13.93;5.18;;;;;;;6.36;100.00;100434.22;5032337;28;20116;-43
2023/01/14 08:20:01;;;;;;;17.77;6.13;;;;;;;6.40;100.00;100436.56;5030933;28;20148;-45
2023/01/14 08:22:28;;;;;;;22.25;6.20;;;;;;;6.40;100.00;100431.22;5032419;28;20052;-44
2023/01/14 08:24:54;;;;;;;19.83;5.63;;;;;;;6.40;100.00;100420.53;5032759;28;20037;-44
2023/01/14 08:27:19;;;;;;;22.60;7.10;;;;;;;6.43;100.00;100398.84;5051503;28;20032;-44
2023/01/14 08:29:45;;;;;;;19.88;6.65;;;;;;;6.45;100.00;100407.50;5051005;28;20025;-44
2023/01/14 08:32:12;;;;;;;21.70;6.85;;;;;;;6.48;100.00;100392.00;5047819;28;20025;-45
2023/01/14 08:34:37;;;;;;;26.23;7.13;;;;;;;6.49;100.00;100376.78;5051689;28;20067;-44
2023/01/14 08:37:03;;;;;;;15.18;5.90;;;;;;;6.53;100.00;100375.44;5051604;28;20033;-44
2023/01/14 08:39:28;;;;;;;12.93;6.50;;;;;;;6.53;100.00;100356.72;5052058;28;20107;-44
2023/01/14 08:41:53;;;;;;;15.05;6.32;;;;;;;6.54;100.00;100363.75;5051961;28;20036;-44
2023/01/14 08:44:19;;;;;;;10.98;5.35;;;;;;;6.62;100.00;100345.03;5043630;28;20028;-45
2023/01/14 08:46:44;;;;;;;11.85;6.20;;;;;;;6.66;100.00;100338.34;5031932;28;20021;-45
2023/01/14 08:49:10;;;;;;;21.63;6.32;;;;;;;6.67;100.00;100342.69;5031113;28;20044;-44
2023/01/14 08:51:36;;;;;;;21.45;6.88;;;;;;;6.69;100.00;100345.19;5031542;28;20036;-44
2023/01/14 08:54:01;;;;;;;16.10;5.95;;;;;;;6.69;100.00;100313.94;5031817;28;20121;-45
2023/01/14 08:56:27;;;;;;;20.17;6.85;;;;;;;6.70;100.00;100328.97;5031980;28;20515;-45
2023/01/14 08:58:53;;;;;;;20.08;6.75;;;;;;;6.72;100.00;100313.59;5049693;28;20029;-45
2023/01/14 09:01:18;;;;;;;22.92;7.88;;;;;;;6.77;100.00;100311.25;5051536;28;20040;-45
2023/01/14 09:03:45;;;;;;;25.08;6.55;;;;;;;6.76;100.00;100304.22;5051318;28;20031;-45
2023/01/14 09:06:12;;;;;;;19.27;6.60;;;;;;;6.76;100.00;100303.38;5051635;28;20028;-45
2023/01/14 09:17:06;;;;;;;23.45;6.10;;;;;;;6.83;100.00;100258.91;5031588;28;20039;-45
2023/01/14 09:19:45;;;;;;;20.55;6.38;;;;;;;6.86;100.00;100271.09;5031412;28;20507;-45
2023/01/14 09:22:12;;;;;;;25.55;5.97;;;;;;;6.88;100.00;100251.22;5029909;28;20060;-45
2023/01/14 09:24:38;;;;;;;24.50;6.40;;;;;;;6.90;100.00;100248.34;5031338;28;20473;-45
2023/01/14 09:27:03;;;;;;;22.38;5.60;;;;;;;6.93;100.00;100223.94;5031133;28;20026;-45
2023/01/14 09:29:28;;;;;;;21.52;5.40;;;;;;;6.97;100.00;100225.25;5031226;28;20405;-45
2023/01/14 09:31:54;;;;;;;22.30;6.50;;;;;;;6.95;100.00;100209.38;5031230;28;20488;-44
2023/01/14 09:34:19;;;;;;;21.45;4.82;;;;;;;6.95;100.00;100195.16;5030624;28;20433;-45
2023/01/14 09:36:45;;;;;;;20.98;5.22;;;;;;;6.99;100.00;100191.13;5031371;28;20025;-45
2023/01/14 09:39:10;;;;;;;21.50;4.63;;;;;;;7.04;100.00;100188.78;5030958;28;20025;-46
2023/01/14 09:41:43;;;;;;;15.50;5.28;;;;;;;7.03;100.00;100179.91;5034372;28;20029;-45
2023/01/14 09:44:11;;;;;;;17.17;4.40;;;;;;;7.10;100.00;100173.84;5048404;28;20675;-44
2023/01/14 09:46:36;;;;;;;13.73;4.18;;;;;;;7.08;100.00;100171.34;5031372;28;20128;-45
2023/01/14 09:49:03;;;;;;;20.02;3.95;;;;;;;7.06;100.00;100160.00;5043167;28;20109;-45
2023/01/14 09:51:38;;;;;;;20.98;4.57;;;;;;;7.09;100.00;100151.63;5032237;28;20124;-45
2023/01/14 09:54:16;;;;;;;20.60;3.45;;;;;;;7.15;100.00;100136.69;5039965;28;20032;-45
2023/01/14 09:56:50;;;;;;;18.98;4.40;;;;;;;7.14;100.00;100125.16;5049395;28;20024;-45
2023/01/14 09:59:22;;;;;;;20.95;4.47;;;;;;;7.16;100.00;100124.97;5044221;28;20029;-45
2023/01/14 10:01:59;;;;;;;10.82;4.45;;;;;;;7.21;100.00;100115.44;5034838;28;20033;-45
2023/01/14 10:04:43;;;;;;;19.80;4.20;;;;;;;7.25;100.00;100087.28;5021073;28;20114;-45
2023/01/14 10:07:11;;;;;;;17.77;4.10;;;;;;;7.30;100.00;100096.63;5032616;28;20460;-45
2023/01/14 10:09:48;;;;;;;;;;;;;;;7.33;100.00;100088.25;5044309;28;20025;-45
2023/01/14 10:12:19;;;;;;;16.30;4.55;;;;;;;7.33;100.00;100075.69;5037569;28;20346;-45
2023/01/14 10:15:15;;;;;;;11.35;3.78;;;;;;;7.38;100.00;100075.16;5042356;28;20018;-44
2023/01/14 10:17:42;;;;;;;15.18;4.47;;;;;;;7.41;100.00;100067.59;5045430;28;20045;-45
2023/01/14 10:20:15;;;;;;;16.03;3.97;;;;;;;7.46;100.00;100061.69;5040678;28;20030;-44
2023/01/14 10:22:52;;;;;;;15.25;4.22;;;;;;;7.49;100.00;100042.59;5042526;28;20684;-46
2023/01/14 10:25:19;;;;;;;16.92;4.22;;;;;;;7.53;100.00;100048.41;5040332;28;20460;-45
2023/01/14 10:27:49;;;;;;;16.42;4.18;;;;;;;7.55;100.00;100041.84;5035470;28;20025;-45
2023/01/14 10:30:18;;;;;;;12.38;4.10;;;;;;;7.59;100.00;100043.16;5035692;28;20091;-46
2023/01/14 10:32:44;;;;;;;15.02;4.53;;;;;;;7.63;100.00;100044.44;5041396;28;20048;-45
2023/01/14 10:35:13;;;;;;;15.95;5.60;;;;;;;7.63;100.00;100011.47;5039207;28;20037;-45
2023/01/14 10:37:38;;;;;;;12.95;4.25;;;;;;;7.65;100.00;100012.13;5041837;28;20071;-45
2023/01/14 10:40:04;;;;;;;13.63;4.15;;;;;;;7.68;100.00;99993.00;5048967;28;20053;-45
2023/01/14 10:42:29;;;;;;;13.95;3.80;;;;;;;7.74;100.00;99986.94;5042962;28;20044;-46
2023/01/14 10:44:56;;;;;;;12.23;3.90;;;;;;;7.77;100.00;99969.69;5042438;28;20437;-45
2023/01/14 10:47:22;;;;;;;11.73;3.90;;;;;;;7.81;100.00;99969.09;5044102;28;20035;-45
2023/01/14 10:49:51;;;;;;;17.15;4.13;;;;;;;7.82;100.00;99980.63;5044523;28;20021;-45
2023/01/14 10:52:36;;;;;;;13.60;3.70;;;;;;;7.86;100.00;99950.63;5042897;28;20458;-46
2023/01/14 10:55:10;;;;;;;13.65;3.90;;;;;;;7.90;100.00;99945.75;5033035;28;20053;-46
2023/01/14 10:57:39;;;;;;;13.60;4.38;;;;;;;7.90;100.00;99937.69;5039819;28;20493;-45
2023/01/14 11:00:05;;;;;;;;;;;;;;;7.93;100.00;99931.13;5043607;28;20052;-46
2023/01/14 11:02:36;;;;;;;10.93;3.47;;;;;;;7.96;100.00;99930.75;5036569;28;20285;-45
2023/01/14 11:05:07;;;;;;;12.30;4.32;;;;;;;8.01;100.00;99931.84;5040516;28;20176;-44
2023/01/14 11:07:35;;;;;;;15.63;4.10;;;;;;;8.04;100.00;99927.97;5033997;28;20025;-45
2023/01/14 11:10:14;;;;;;;10.95;3.67;;;;;;;8.07;100.00;99912.34;5035349;28;20030;-46
2023/01/14 11:12:39;;;;;;;12.60;3.05;;;;;;;8.08;100.00;99903.28;5035318;28;20108;-45
2023/01/14 11:15:05;;;;;;;12.13;3.08;;;;;;;8.11;100.00;99897.56;5039717;28;20025;-45
2023/01/14 11:17:31;;;;;;;13.75;3.28;;;;;;;8.12;100.00;99896.53;5038019;28;20037;-46
2023/01/14 11:20:27;;;;;;;12.82;2.95;;;;;;;8.14;100.00;99907.88;5046423;28;20112;-47
2023/01/14 11:23:00;;;;;;;13.57;3.67;;;;;;;8.19;100.00;99887.72;5031472;28;20064;-46
2023/01/14 11:25:26;;;;;;;11.13;2.75;;;;;;;8.20;100.00;99889.41;5043564;28;20123;-46
2023/01/14 11:27:52;;;;;;;9.95;2.85;;;;;;;8.25;100.00;99905.75;5047777;28;20032;-47
2023/01/14 11:30:18;;;;;;;12.35;3.10;;;;;;;8.25;100.00;99849.44;5053479;28;20033;-46
2023/01/14 11:32:48;;;;;;;8.88;2.75;;;;;;;8.27;100.00;99852.78;5037230;28;20044;-45
2023/01/14 11:35:33;;;;;;;10.10;2.78;;;;;;;8.30;100.00;99842.50;5038332;28;20140;-45
2023/01/14 11:37:59;;;;;;;16.55;3.65;;;;;;;8.31;100.00;99870.13;5048693;28;20147;-45
2023/01/14 11:43:20;;;;;;;13.60;2.97;;;;;;;8.35;100.00;99828.50;5033444;28;20106;-46
2023/01/14 11:45:46;;;;;;;13.18;2.85;;;;;;;8.35;100.00;99837.38;5040096;28;20037;-46
2023/01/14 11:48:26;;;;;;;9.63;2.78;;;;;;;8.36;100.00;99825.63;5035771;28;20381;-46
2023/01/14 11:50:59;;;;;;;20.55;2.58;;;;;;;8.39;100.00;99819.06;5046350;28;20039;-46
2023/01/14 11:53:26;;;;;;;19.48;3.63;;;;;;;8.40;100.00;99823.44;5048955;28;20040;-46
2023/01/14 11:55:55;;;;;;;15.40;3.05;;;;;;;8.40;100.00;99820.75;5046354;28;20443;-46
2023/01/14 11:58:25;;;;;;;12.40;3.22;;;;;;;8.42;100.00;99807.97;5047115;28;20044;-47
2023/01/14 12:01:20;;;;;;;8.07;3.65;;;;;;;8.47;100.00;99797.50;5047456;28;20029;-46